Swinomish — WC5223 — position and weather

sailwx.info

Track history (hours):
 
Tides and Currents Weather Stations Pressure Air Temp Water Temp Dewpoint Dewpoint Depression Visibility Wind Speed Wind Dir Waves Ship Positions

Swinomish

Owner: DUNLAP TOWING CO, LA CONNER, WA. More information available from US FCC via Universal Licensing System and Coast Guard Vessel Documentation Center.

Last reported at 2015-Mar-05 14:33 UTC. Time now 2015-Mar-05 14:39 UTC.
Position N 48°30' W 122°44'.

Length 15 m; draft 3.5 m.

Type: Tug. MMSI: 366972050.

Date/timePositionNaut miles runAvg speedWind from/ knotsBaromVisibWave heightAir tempDewpointWater temp
2015-Mar-05 14:33N 48°30' W 122°44'1 0.9
2015-Mar-05 13:33N 48°31' W 122°45'1 1.3
2015-Mar-05 12:34N 48°31' W 122°46'1 1.2
2015-Mar-05 11:33N 48°32' W 122°48'0 0.4
2015-Mar-05 10:33N 48°32' W 122°49'1 0.8
2015-Mar-05 09:33N 48°32' W 122°50'1 0.7
2015-Mar-05 08:33N 48°31' W 122°51'0 0.1
2015-Mar-05 07:33N 48°31' W 122°51'0 0.0
2015-Mar-05 06:33N 48°31' W 122°51'0 0.0
2015-Mar-05 05:33N 48°31' W 122°51'0 0.0
2015-Mar-05 04:33N 48°31' W 122°51'0 0.0
2015-Mar-05 03:33N 48°31' W 122°51'0 0.0
2015-Mar-05 02:33N 48°31' W 122°51'0 0.0
2015-Mar-05 01:33N 48°31' W 122°51'0 0.0
2015-Mar-05 00:33N 48°31' W 122°51'0 0.4
2015-Mar-04 23:33N 48°31' W 122°51'1 1.1
2015-Mar-04 22:33N 48°33' W 122°50'1 1.2
2015-Mar-04 21:33N 48°34' W 122°51'1 1.4
2015-Mar-04 20:33N 48°35' W 122°53'1 1.4
2015-Mar-04 19:33N 48°35' W 122°54'1 1.4
2015-Mar-04 18:33N 48°35' W 122°57'2 1.8
2015-Mar-04 17:33N 48°36' W 122°59'2 1.5
2015-Mar-04 16:33N 48°36' W 123°01'2 1.9
2015-Mar-04 15:33N 48°38' W 123°02'2 2.2
2015-Mar-04 14:33N 48°40' W 123°00'2 2.1
2015-Mar-04 13:33N 48°42' W 122°60'2 1.8
2015-Mar-04 12:34N 48°44' W 122°60'1 1.2
2015-Mar-04 11:33N 48°44' W 123°01'3 2.9
2015-Mar-04 10:33N 48°44' W 123°05'2 2.3
2015-Mar-04 09:33N 48°44' W 123°09'2 1.6
2015-Mar-04 08:33N 48°45' W 123°11'1 1.4
2015-Mar-04 07:34N 48°46' W 123°12'0 0.3
2015-Mar-04 06:33N 48°46' W 123°13'0 0.2
2015-Mar-04 05:33N 48°46' W 123°13'0 0.4
2015-Mar-04 04:33N 48°46' W 123°12'0 0.4
2015-Mar-04 03:33N 48°46' W 123°12'0 0.3
2015-Mar-04 02:34N 48°46' W 123°12'1 0.9
2015-Mar-04 01:32N 48°46' W 123°13'1 1.0
2015-Mar-04 00:33N 48°47' W 123°14'1 1.0
2015-Mar-03 23:28N 48°48' W 123°14'1 0.8
2015-Mar-03 22:30N 48°49' W 123°15'3 1.3
2015-Mar-03 20:30N 48°50' W 123°19'1 0.6
2015-Mar-03 19:22N 48°50' W 123°20'1 0.8
2015-Mar-03 18:31N 48°50' W 123°21'3 1.5
2015-Mar-03 16:15N 48°52' W 123°24'1 1.9
2015-Mar-03 15:32N 48°53' W 123°26'2 1.9
2015-Mar-03 14:33N 48°54' W 123°28'2 1.9
2015-Mar-03 13:32N 48°55' W 123°30'2 1.8
2015-Mar-03 12:30N 48°57' W 123°32'2 1.6
2015-Mar-03 11:32N 48°58' W 123°34'2 1.4
2015-Mar-03 10:23N 48°59' W 123°36'1 1.4
2015-Mar-03 09:33N 48°60' W 123°37'2 1.6
2015-Mar-03 08:32N 49°01' W 123°38'1 1.1
2015-Mar-03 07:17N 49°02' W 123°39'1 1.2
2015-Mar-03 06:27N 49°03' W 123°40'2 1.9
2015-Mar-03 05:29N 49°05' W 123°41'2 1.5
2015-Mar-03 04:18N 49°07' W 123°43'0 0.1
2015-Mar-03 03:32N 49°07' W 123°42'0 0.0
2015-Mar-03 02:30N 49°07' W 123°42'0 0.0
2015-Mar-03 01:34N 49°07' W 123°42'0 0.2
2015-Mar-03 00:32N 49°07' W 123°43'1 0.4
2015-Mar-02 23:03N 49°06' W 123°42'1 0.7
2015-Mar-02 22:09N 49°07' W 123°43'0 0.1
2015-Mar-02 17:31N 49°07' W 123°42'0 0.1
2015-Mar-02 16:05N 49°07' W 123°43'0 0.1
2015-Mar-02 15:31N 49°07' W 123°43'0 0.1
2015-Mar-02 14:26N 49°07' W 123°43'1 0.7
2015-Mar-02 13:18N 49°06' W 123°42'2 2.2
2015-Mar-02 12:33N 49°05' W 123°44'3 3.1
2015-Mar-02 11:33N 49°01' W 123°44'3 2.8
2015-Mar-02 10:33N 48°59' W 123°43'3 2.9
2015-Mar-02 09:33N 48°56' W 123°41'1 1.1
2015-Mar-02 08:33N 48°55' W 123°41'0 0.0
2015-Mar-02 07:30N 48°55' W 123°41'0 0.0
2015-Mar-02 06:31N 48°55' W 123°41'0 0.0
2015-Mar-02 05:33N 48°55' W 123°41'0 0.0
2015-Mar-02 04:33N 48°55' W 123°41'7 7.1
2015-Mar-02 03:33N 48°54' W 123°30'1110.4
2015-Mar-02 02:30N 48°49' W 123°16'1111.2
2015-Mar-02 01:33N 48°44' W 123°02'1110.5
2015-Mar-02 00:33N 48°41' W 122°47'1010.3
2015-Mar-01 23:33N 48°34' W 122°35'11 3.2
2015-Mar-01 20:13N 48°24' W 122°30'0 0.0
2015-Mar-01 19:21N 48°24' W 122°30'0 0.0
2015-Mar-01 18:32N 48°24' W 122°30'0 0.0
2015-Mar-01 17:33N 48°24' W 122°30'0 0.0
2015-Feb-28 13:32N 48°24' W 122°30'16 3.9
2015-Feb-28 09:29N 48°08' W 122°32'5 5.6
2015-Feb-28 08:33N 48°05' W 122°26'6 5.6
2015-Feb-28 07:30N 48°01' W 122°19'4 4.7
2015-Feb-28 06:33N 47°59' W 122°13'1 1.2
2015-Feb-28 05:33N 47°58' W 122°15'6 6.1
2015-Feb-28 04:33N 47°54' W 122°21'7 6.8
2015-Feb-28 03:33N 47°47' W 122°25'7 7.1
2015-Feb-28 02:34N 47°41' W 122°28'8 7.2
2015-Feb-28 01:27N 47°33' W 122°28'9 8.4
2015-Feb-28 00:24N 47°24' W 122°32'7 6.7
2015-Feb-27 23:21N 47°18' W 122°28'16 1.5
2015-Feb-27 12:27N 47°10' W 122°48'2 0.7
2015-Feb-27 09:12N 47°10' W 122°45'1 1.3
2015-Feb-27 08:28N 47°10' W 122°44'3 1.6
2015-Feb-27 06:33N 47°11' W 122°40'1 1.4
2015-Feb-27 05:32N 47°12' W 122°38'2 2.5
2015-Feb-27 04:33N 47°13' W 122°35'4 4.0
2015-Feb-27 03:33N 47°17' W 122°32'2 1.9
2015-Feb-27 02:33N 47°19' W 122°33'1 1.1
2015-Feb-27 01:33N 47°19' W 122°32'1 1.0
2015-Feb-27 00:33N 47°18' W 122°30'1 0.6
2015-Feb-26 23:33N 47°18' W 122°30'1 0.9
2015-Feb-26 22:33N 47°17' W 122°29'1 0.7
2015-Feb-26 21:33N 47°17' W 122°28'1 0.7
2015-Feb-26 20:32N 47°17' W 122°29'1 0.6
2015-Feb-26 19:33N 47°18' W 122°29'0 0.5
2015-Feb-26 18:33N 47°18' W 122°30'0 0.3
2015-Feb-26 17:34N 47°18' W 122°30'0 0.5
2015-Feb-26 16:33N 47°19' W 122°30'2 2.0
2015-Feb-26 15:33N 47°20' W 122°27'2 1.7
2015-Feb-26 14:33N 47°21' W 122°26'1 1.5
2015-Feb-26 13:34N 47°22' W 122°24'2 1.6
2015-Feb-26 12:33N 47°23' W 122°22'1 1.4
2015-Feb-26 11:34N 47°24' W 122°23'2 1.6
2015-Feb-26 10:33N 47°26' W 122°25'1 1.4
2015-Feb-26 09:33N 47°27' W 122°25'1 1.2
2015-Feb-26 08:33N 47°28' W 122°26'1 1.1
2015-Feb-26 07:33N 47°29' W 122°26'1 1.5
2015-Feb-26 06:33N 47°31' W 122°27'2 1.6
2015-Feb-26 05:34N 47°32' W 122°28'2 1.8
2015-Feb-26 04:33N 47°34' W 122°28'2 1.9
2015-Feb-26 03:33N 47°36' W 122°29'2 2.0
2015-Feb-26 02:34N 47°38' W 122°29'2 1.6
2015-Feb-26 01:33N 47°39' W 122°29'1 1.2
2015-Feb-26 00:33N 47°40' W 122°29'1 1.0
2015-Feb-25 23:34N 47°41' W 122°29'1 1.1
2015-Feb-25 22:33N 47°42' W 122°28'1 1.2
2015-Feb-25 21:33N 47°42' W 122°26'1 0.7
2015-Feb-25 20:33N 47°42' W 122°25'1 0.8
2015-Feb-25 19:33N 47°43' W 122°24'1 1.0
2015-Feb-25 18:33N 47°44' W 122°24'1 1.2
2015-Feb-25 17:34N 47°45' W 122°24'1 1.2
2015-Feb-25 16:33N 47°47' W 122°25'1 1.4
2015-Feb-25 15:33N 47°48' W 122°25'1 1.4
2015-Feb-25 14:33N 47°49' W 122°24'2 1.5
2015-Feb-25 13:33N 47°50' W 122°23'1 1.3
2015-Feb-25 12:33N 47°52' W 122°22'2 1.5
2015-Feb-25 11:33N 47°53' W 122°21'2 2.0
2015-Feb-25 10:33N 47°55' W 122°20'2 2.2
2015-Feb-25 09:33N 47°57' W 122°20'2 1.8
2015-Feb-25 08:33N 47°58' W 122°17'2 1.7
2015-Feb-25 07:33N 47°58' W 122°15'0 0.3
2015-Feb-25 06:33N 47°58' W 122°14'1 0.6
2015-Feb-25 05:31N 47°58' W 122°15'1 1.0
2015-Feb-25 04:33N 47°59' W 122°16'1 1.4
2015-Feb-25 03:33N 48°00' W 122°17'1 1.4
2015-Feb-25 02:32N 48°02' W 122°18'2 1.4
2015-Feb-25 01:07N 48°02' W 122°21'1 1.9
2015-Feb-25 00:31N 48°03' W 122°23'2 2.0
2015-Feb-24 23:33N 48°04' W 122°25'1 1.5
2015-Feb-24 22:33N 48°05' W 122°26'6 2.0
2015-Feb-24 19:31N 48°10' W 122°32'5 1.6
2015-Feb-24 16:17N 48°15' W 122°33'1 1.5
2015-Feb-24 15:30N 48°16' W 122°32'1 1.4
2015-Feb-24 14:30N 48°17' W 122°31'1 1.3
2015-Feb-24 13:29N 48°18' W 122°30'1 1.4
2015-Feb-24 12:33N 48°19' W 122°30'3 3.0
2015-Feb-24 11:30N 48°21' W 122°34'2 0.3
2015-Feb-24 06:14N 48°23' W 122°35'2 2.3
2015-Feb-24 05:29N 48°22' W 122°32'1 0.7
2015-Feb-24 03:28N 48°23' W 122°30'1 0.3
2015-Feb-24 00:19N 48°22' W 122°31'5 1.7
2015-Feb-23 21:33N 48°24' W 122°38'1 1.0
2015-Feb-23 20:23N 48°24' W 122°39'1 0.8
2015-Feb-23 19:33N 48°25' W 122°40'3 2.7
2015-Feb-23 18:33N 48°27' W 122°43'3 3.0
2015-Feb-23 17:33N 48°30' W 122°44'1 1.4
2015-Feb-23 16:33N 48°31' W 122°45'1 1.0
2015-Feb-23 15:33N 48°31' W 122°46'  
Track history (hours):
 
Tides and Currents Weather Stations Pressure Air Temp Water Temp Dewpoint Dewpoint Depression Visibility Wind Speed Wind Dir Waves Ship Positions

Swinomish

Owner: DUNLAP TOWING CO, LA CONNER, WA. More information available from US FCC via Universal Licensing System and Coast Guard Vessel Documentation Center.

Last reported at 2015-Mar-05 14:33 UTC. Time now 2015-Mar-05 14:39 UTC.
Position N 48°30' W 122°44'.

Length 15 m; draft 3.5 m.

Type: Tug. MMSI: 366972050.

Date/timePositionNaut miles runAvg speedWind from/ knotsBaromVisibWave heightAir tempDewpointWater temp
2015-Mar-05 14:33N 48°30' W 122°44'1 0.9
2015-Mar-05 13:33N 48°31' W 122°45'1 1.3
2015-Mar-05 12:34N 48°31' W 122°46'1 1.2
2015-Mar-05 11:33N 48°32' W 122°48'0 0.4
2015-Mar-05 10:33N 48°32' W 122°49'1 0.8
2015-Mar-05 09:33N 48°32' W 122°50'1 0.7
2015-Mar-05 08:33N 48°31' W 122°51'0 0.1
2015-Mar-05 07:33N 48°31' W 122°51'0 0.0
2015-Mar-05 06:33N 48°31' W 122°51'0 0.0
2015-Mar-05 05:33N 48°31' W 122°51'0 0.0
2015-Mar-05 04:33N 48°31' W 122°51'0 0.0
2015-Mar-05 03:33N 48°31' W 122°51'0 0.0
2015-Mar-05 02:33N 48°31' W 122°51'0 0.0
2015-Mar-05 01:33N 48°31' W 122°51'0 0.0
2015-Mar-05 00:33N 48°31' W 122°51'0 0.4
2015-Mar-04 23:33N 48°31' W 122°51'1 1.1
2015-Mar-04 22:33N 48°33' W 122°50'1 1.2
2015-Mar-04 21:33N 48°34' W 122°51'1 1.4
2015-Mar-04 20:33N 48°35' W 122°53'1 1.4
2015-Mar-04 19:33N 48°35' W 122°54'1 1.4
2015-Mar-04 18:33N 48°35' W 122°57'2 1.8
2015-Mar-04 17:33N 48°36' W 122°59'2 1.5
2015-Mar-04 16:33N 48°36' W 123°01'2 1.9
2015-Mar-04 15:33N 48°38' W 123°02'2 2.2
2015-Mar-04 14:33N 48°40' W 123°00'2 2.1
2015-Mar-04 13:33N 48°42' W 122°60'2 1.8
2015-Mar-04 12:34N 48°44' W 122°60'1 1.2
2015-Mar-04 11:33N 48°44' W 123°01'3 2.9
2015-Mar-04 10:33N 48°44' W 123°05'2 2.3
2015-Mar-04 09:33N 48°44' W 123°09'2 1.6
2015-Mar-04 08:33N 48°45' W 123°11'1 1.4
2015-Mar-04 07:34N 48°46' W 123°12'0 0.3
2015-Mar-04 06:33N 48°46' W 123°13'0 0.2
2015-Mar-04 05:33N 48°46' W 123°13'0 0.4
2015-Mar-04 04:33N 48°46' W 123°12'0 0.4
2015-Mar-04 03:33N 48°46' W 123°12'0 0.3
2015-Mar-04 02:34N 48°46' W 123°12'1 0.9
2015-Mar-04 01:32N 48°46' W 123°13'1 1.0
2015-Mar-04 00:33N 48°47' W 123°14'1 1.0
2015-Mar-03 23:28N 48°48' W 123°14'1 0.8
2015-Mar-03 22:30N 48°49' W 123°15'3 1.3
2015-Mar-03 20:30N 48°50' W 123°19'1 0.6
2015-Mar-03 19:22N 48°50' W 123°20'1 0.8
2015-Mar-03 18:31N 48°50' W 123°21'3 1.5
2015-Mar-03 16:15N 48°52' W 123°24'1 1.9
2015-Mar-03 15:32N 48°53' W 123°26'2 1.9
2015-Mar-03 14:33N 48°54' W 123°28'2 1.9
2015-Mar-03 13:32N 48°55' W 123°30'2 1.8
2015-Mar-03 12:30N 48°57' W 123°32'2 1.6
2015-Mar-03 11:32N 48°58' W 123°34'2 1.4
2015-Mar-03 10:23N 48°59' W 123°36'1 1.4
2015-Mar-03 09:33N 48°60' W 123°37'2 1.6
2015-Mar-03 08:32N 49°01' W 123°38'1 1.1
2015-Mar-03 07:17N 49°02' W 123°39'1 1.2
2015-Mar-03 06:27N 49°03' W 123°40'2 1.9
2015-Mar-03 05:29N 49°05' W 123°41'2 1.5
2015-Mar-03 04:18N 49°07' W 123°43'0 0.1
2015-Mar-03 03:32N 49°07' W 123°42'0 0.0
2015-Mar-03 02:30N 49°07' W 123°42'0 0.0
2015-Mar-03 01:34N 49°07' W 123°42'0 0.2
2015-Mar-03 00:32N 49°07' W 123°43'1 0.4
2015-Mar-02 23:03N 49°06' W 123°42'1 0.7
2015-Mar-02 22:09N 49°07' W 123°43'0 0.1
2015-Mar-02 17:31N 49°07' W 123°42'0 0.1
2015-Mar-02 16:05N 49°07' W 123°43'0 0.1
2015-Mar-02 15:31N 49°07' W 123°43'0 0.1
2015-Mar-02 14:26N 49°07' W 123°43'1 0.7
2015-Mar-02 13:18N 49°06' W 123°42'2 2.2
2015-Mar-02 12:33N 49°05' W 123°44'3 3.1
2015-Mar-02 11:33N 49°01' W 123°44'3 2.8
2015-Mar-02 10:33N 48°59' W 123°43'3 2.9
2015-Mar-02 09:33N 48°56' W 123°41'1 1.1
2015-Mar-02 08:33N 48°55' W 123°41'0 0.0
2015-Mar-02 07:30N 48°55' W 123°41'0 0.0
2015-Mar-02 06:31N 48°55' W 123°41'0 0.0
2015-Mar-02 05:33N 48°55' W 123°41'0 0.0
2015-Mar-02 04:33N 48°55' W 123°41'7 7.1
2015-Mar-02 03:33N 48°54' W 123°30'1110.4
2015-Mar-02 02:30N 48°49' W 123°16'1111.2
2015-Mar-02 01:33N 48°44' W 123°02'1110.5
2015-Mar-02 00:33N 48°41' W 122°47'1010.3
2015-Mar-01 23:33N 48°34' W 122°35'11 3.2
2015-Mar-01 20:13N 48°24' W 122°30'0 0.0
2015-Mar-01 19:21N 48°24' W 122°30'0 0.0
2015-Mar-01 18:32N 48°24' W 122°30'0 0.0
2015-Mar-01 17:33N 48°24' W 122°30'0 0.0
2015-Feb-28 13:32N 48°24' W 122°30'16 3.9
2015-Feb-28 09:29N 48°08' W 122°32'5 5.6
2015-Feb-28 08:33N 48°05' W 122°26'6 5.6
2015-Feb-28 07:30N 48°01' W 122°19'4 4.7
2015-Feb-28 06:33N 47°59' W 122°13'1 1.2
2015-Feb-28 05:33N 47°58' W 122°15'6 6.1
2015-Feb-28 04:33N 47°54' W 122°21'7 6.8
2015-Feb-28 03:33N 47°47' W 122°25'7 7.1
2015-Feb-28 02:34N 47°41' W 122°28'8 7.2
2015-Feb-28 01:27N 47°33' W 122°28'9 8.4
2015-Feb-28 00:24N 47°24' W 122°32'7 6.7
2015-Feb-27 23:21N 47°18' W 122°28'16 1.5
2015-Feb-27 12:27N 47°10' W 122°48'2 0.7
2015-Feb-27 09:12N 47°10' W 122°45'1 1.3
2015-Feb-27 08:28N 47°10' W 122°44'3 1.6
2015-Feb-27 06:33N 47°11' W 122°40'1 1.4
2015-Feb-27 05:32N 47°12' W 122°38'2 2.5
2015-Feb-27 04:33N 47°13' W 122°35'4 4.0
2015-Feb-27 03:33N 47°17' W 122°32'2 1.9
2015-Feb-27 02:33N 47°19' W 122°33'1 1.1
2015-Feb-27 01:33N 47°19' W 122°32'1 1.0
2015-Feb-27 00:33N 47°18' W 122°30'1 0.6
2015-Feb-26 23:33N 47°18' W 122°30'1 0.9
2015-Feb-26 22:33N 47°17' W 122°29'1 0.7
2015-Feb-26 21:33N 47°17' W 122°28'1 0.7
2015-Feb-26 20:32N 47°17' W 122°29'1 0.6
2015-Feb-26 19:33N 47°18' W 122°29'0 0.5
2015-Feb-26 18:33N 47°18' W 122°30'0 0.3
2015-Feb-26 17:34N 47°18' W 122°30'0 0.5
2015-Feb-26 16:33N 47°19' W 122°30'2 2.0
2015-Feb-26 15:33N 47°20' W 122°27'2 1.7
2015-Feb-26 14:33N 47°21' W 122°26'1 1.5
2015-Feb-26 13:34N 47°22' W 122°24'2 1.6
2015-Feb-26 12:33N 47°23' W 122°22'1 1.4
2015-Feb-26 11:34N 47°24' W 122°23'2 1.6
2015-Feb-26 10:33N 47°26' W 122°25'1 1.4
2015-Feb-26 09:33N 47°27' W 122°25'1 1.2
2015-Feb-26 08:33N 47°28' W 122°26'1 1.1
2015-Feb-26 07:33N 47°29' W 122°26'1 1.5
2015-Feb-26 06:33N 47°31' W 122°27'2 1.6
2015-Feb-26 05:34N 47°32' W 122°28'2 1.8
2015-Feb-26 04:33N 47°34' W 122°28'2 1.9
2015-Feb-26 03:33N 47°36' W 122°29'2 2.0
2015-Feb-26 02:34N 47°38' W 122°29'2 1.6
2015-Feb-26 01:33N 47°39' W 122°29'1 1.2
2015-Feb-26 00:33N 47°40' W 122°29'1 1.0
2015-Feb-25 23:34N 47°41' W 122°29'1 1.1
2015-Feb-25 22:33N 47°42' W 122°28'1 1.2
2015-Feb-25 21:33N 47°42' W 122°26'1 0.7
2015-Feb-25 20:33N 47°42' W 122°25'1 0.8
2015-Feb-25 19:33N 47°43' W 122°24'1 1.0
2015-Feb-25 18:33N 47°44' W 122°24'1 1.2
2015-Feb-25 17:34N 47°45' W 122°24'1 1.2
2015-Feb-25 16:33N 47°47' W 122°25'1 1.4
2015-Feb-25 15:33N 47°48' W 122°25'1 1.4
2015-Feb-25 14:33N 47°49' W 122°24'2 1.5
2015-Feb-25 13:33N 47°50' W 122°23'1 1.3
2015-Feb-25 12:33N 47°52' W 122°22'2 1.5
2015-Feb-25 11:33N 47°53' W 122°21'2 2.0
2015-Feb-25 10:33N 47°55' W 122°20'2 2.2
2015-Feb-25 09:33N 47°57' W 122°20'2 1.8
2015-Feb-25 08:33N 47°58' W 122°17'2 1.7
2015-Feb-25 07:33N 47°58' W 122°15'0 0.3
2015-Feb-25 06:33N 47°58' W 122°14'1 0.6
2015-Feb-25 05:31N 47°58' W 122°15'1 1.0
2015-Feb-25 04:33N 47°59' W 122°16'1 1.4
2015-Feb-25 03:33N 48°00' W 122°17'1 1.4
2015-Feb-25 02:32N 48°02' W 122°18'2 1.4
2015-Feb-25 01:07N 48°02' W 122°21'1 1.9
2015-Feb-25 00:31N 48°03' W 122°23'2 2.0
2015-Feb-24 23:33N 48°04' W 122°25'1 1.5
2015-Feb-24 22:33N 48°05' W 122°26'6 2.0
2015-Feb-24 19:31N 48°10' W 122°32'5 1.6
2015-Feb-24 16:17N 48°15' W 122°33'1 1.5
2015-Feb-24 15:30N 48°16' W 122°32'1 1.4
2015-Feb-24 14:30N 48°17' W 122°31'1 1.3
2015-Feb-24 13:29N 48°18' W 122°30'1 1.4
2015-Feb-24 12:33N 48°19' W 122°30'3 3.0
2015-Feb-24 11:30N 48°21' W 122°34'2 0.3
2015-Feb-24 06:14N 48°23' W 122°35'2 2.3
2015-Feb-24 05:29N 48°22' W 122°32'1 0.7
2015-Feb-24 03:28N 48°23' W 122°30'1 0.3
2015-Feb-24 00:19N 48°22' W 122°31'5 1.7
2015-Feb-23 21:33N 48°24' W 122°38'1 1.0
2015-Feb-23 20:23N 48°24' W 122°39'1 0.8
2015-Feb-23 19:33N 48°25' W 122°40'3 2.7
2015-Feb-23 18:33N 48°27' W 122°43'3 3.0
2015-Feb-23 17:33N 48°30' W 122°44'1 1.4
2015-Feb-23 16:33N 48°31' W 122°45'1 1.0
2015-Feb-23 15:33N 48°31' W 122°46'  

Dump ship's entire track history